Sacramento, California
Traffic Map
Current Weather Conditions
Sacramento, California
Broken Clouds
Broken Clouds
14°
Feels Like: 14°
Wind Chill: 14° Ceiling: 8500
Heat Index: 14° Visibility: 10mi
Dew Point: 13° Wind: 15mph
Humidity: 93% Direction: 230° (SW)
Pressure: 30in Gusts: 0mph
Raw Report DataKSAC 301053Z AUTO 23013KT 10SM BKN085 14/13 A3000 RMK AO2 RAB0954E03 SLP159 P0000 T01390128
Traffic Incident Summary
Active as of:
Severity:
Category:
InformationThere was an issue retrieving the traffic information for this location. Please try a different location or try again shortly.
Advertisements
Track Severe Weather on mobile